sensor_id;sensor_type;location;lat;lon;timestamp;temperature;humidity
16032;DHT22;8120;48.308;8.914;2023-02-01T00:00:16;1.40;83.00
16032;DHT22;8120;48.308;8.914;2023-02-01T00:02:44;1.40;82.70
16032;DHT22;8120;48.308;8.914;2023-02-01T00:05:12;1.40;83.00
16032;DHT22;8120;48.308;8.914;2023-02-01T00:07:40;1.40;83.10
16032;DHT22;8120;48.308;8.914;2023-02-01T00:10:10;1.40;83.20
16032;DHT22;8120;48.308;8.914;2023-02-01T00:12:38;1.40;83.30
16032;DHT22;8120;48.308;8.914;2023-02-01T00:15:07;1.40;83.20
16032;DHT22;8120;48.308;8.914;2023-02-01T00:17:35;1.40;83.30
16032;DHT22;8120;48.308;8.914;2023-02-01T00:20:04;1.50;83.50
16032;DHT22;8120;48.308;8.914;2023-02-01T00:22:32;1.50;83.60
16032;DHT22;8120;48.308;8.914;2023-02-01T00:25:00;1.50;83.70
16032;DHT22;8120;48.308;8.914;2023-02-01T00:27:29;1.50;83.80
16032;DHT22;8120;48.308;8.914;2023-02-01T00:29:57;1.50;83.70
16032;DHT22;8120;48.308;8.914;2023-02-01T00:32:24;1.60;83.70
16032;DHT22;8120;48.308;8.914;2023-02-01T00:34:52;1.60;84.10
16032;DHT22;8120;48.308;8.914;2023-02-01T00:37:20;1.60;84.60
16032;DHT22;8120;48.308;8.914;2023-02-01T00:39:49;1.60;84.90
16032;DHT22;8120;48.308;8.914;2023-02-01T00:42:17;1.60;85.10
16032;DHT22;8120;48.308;8.914;2023-02-01T00:44:46;1.70;85.10
16032;DHT22;8120;48.308;8.914;2023-02-01T00:47:14;1.70;85.10
16032;DHT22;8120;48.308;8.914;2023-02-01T00:49:42;1.70;85.20
16032;DHT22;8120;48.308;8.914;2023-02-01T00:52:10;1.70;85.50
16032;DHT22;8120;48.308;8.914;2023-02-01T00:54:38;1.80;85.80
16032;DHT22;8120;48.308;8.914;2023-02-01T00:57:05;1.80;85.70
16032;DHT22;8120;48.308;8.914;2023-02-01T00:59:33;1.70;85.80
16032;DHT22;8120;48.308;8.914;2023-02-01T01:02:02;1.80;86.00
16032;DHT22;8120;48.308;8.914;2023-02-01T01:04:30;1.80;86.40
16032;DHT22;8120;48.308;8.914;2023-02-01T01:06:58;1.80;86.40
16032;DHT22;8120;48.308;8.914;2023-02-01T01:09:26;1.80;86.70
16032;DHT22;8120;48.308;8.914;2023-02-01T01:11:54;1.80;87.10
16032;DHT22;8120;48.308;8.914;2023-02-01T01:14:21;1.80;87.60
16032;DHT22;8120;48.308;8.914;2023-02-01T01:16:49;1.80;88.00
16032;DHT22;8120;48.308;8.914;2023-02-01T01:19:19;1.80;88.10
16032;DHT22;8120;48.308;8.914;2023-02-01T01:21:46;1.80;88.30
16032;DHT22;8120;48.308;8.914;2023-02-01T01:24:14;1.80;88.30
16032;DHT22;8120;48.308;8.914;2023-02-01T01:26:42;1.80;88.40
16032;DHT22;8120;48.308;8.914;2023-02-01T01:29:10;1.80;88.60
16032;DHT22;8120;48.308;8.914;2023-02-01T01:31:38;1.80;88.70
16032;DHT22;8120;48.308;8.914;2023-02-01T01:34:06;1.80;89.00
16032;DHT22;8120;48.308;8.914;2023-02-01T01:36:35;1.80;89.20
16032;DHT22;8120;48.308;8.914;2023-02-01T01:39:03;1.80;89.00
16032;DHT22;8120;48.308;8.914;2023-02-01T01:41:32;1.80;88.80
16032;DHT22;8120;48.308;8.914;2023-02-01T01:44:01;1.80;88.80
16032;DHT22;8120;48.308;8.914;2023-02-01T01:46:31;1.80;88.80
16032;DHT22;8120;48.308;8.914;2023-02-01T01:49:04;1.90;88.70
16032;DHT22;8120;48.308;8.914;2023-02-01T01:51:38;1.90;88.70
16032;DHT22;8120;48.308;8.914;2023-02-01T01:54:09;1.80;88.80
16032;DHT22;8120;48.308;8.914;2023-02-01T01:56:40;1.80;88.90
16032;DHT22;8120;48.308;8.914;2023-02-01T01:59:09;1.90;88.60
16032;DHT22;8120;48.308;8.914;2023-02-01T02:01:37;1.90;88.20
16032;DHT22;8120;48.308;8.914;2023-02-01T02:04:05;1.90;88.00
16032;DHT22;8120;48.308;8.914;2023-02-01T02:06:40;1.90;87.60
16032;DHT22;8120;48.308;8.914;2023-02-01T02:09:12;1.90;87.60
16032;DHT22;8120;48.308;8.914;2023-02-01T02:11:39;1.90;87.70
16032;DHT22;8120;48.308;8.914;2023-02-01T02:14:10;2.00;86.90
16032;DHT22;8120;48.308;8.914;2023-02-01T02:16:58;2.00;86.50
16032;DHT22;8120;48.308;8.914;2023-02-01T02:19:48;2.10;85.80
16032;DHT22;8120;48.308;8.914;2023-02-01T02:22:48;2.10;85.60
16032;DHT22;8120;48.308;8.914;2023-02-01T02:28:41;2.10;85.70
16032;DHT22;8120;48.308;8.914;2023-02-01T02:31:40;2.10;86.10
16032;DHT22;8120;48.308;8.914;2023-02-01T02:34:18;2.10;86.30
16032;DHT22;8120;48.308;8.914;2023-02-01T02:36:58;2.10;86.10
16032;DHT22;8120;48.308;8.914;2023-02-01T02:39:36;2.10;86.00
16032;DHT22;8120;48.308;8.914;2023-02-01T02:42:12;2.20;85.70
16032;DHT22;8120;48.308;8.914;2023-02-01T02:45:03;2.10;86.30
16032;DHT22;8120;48.308;8.914;2023-02-01T02:47:54;2.10;86.70
16032;DHT22;8120;48.308;8.914;2023-02-01T02:50:28;2.10;87.00
16032;DHT22;8120;48.308;8.914;2023-02-01T02:53:18;2.00;87.50
16032;DHT22;8120;48.308;8.914;2023-02-01T02:56:06;2.00;87.90
16032;DHT22;8120;48.308;8.914;2023-02-01T02:58:52;2.00;88.80
16032;DHT22;8120;48.308;8.914;2023-02-01T03:01:40;1.90;89.30
16032;DHT22;8120;48.308;8.914;2023-02-01T03:04:25;1.90;90.10
16032;DHT22;8120;48.308;8.914;2023-02-01T03:06:54;1.90;91.00
16032;DHT22;8120;48.308;8.914;2023-02-01T03:09:26;1.80;91.50
16032;DHT22;8120;48.308;8.914;2023-02-01T03:11:58;1.80;91.60
16032;DHT22;8120;48.308;8.914;2023-02-01T03:14:47;1.80;91.80
16032;DHT22;8120;48.308;8.914;2023-02-01T03:17:21;1.80;91.70
16032;DHT22;8120;48.308;8.914;2023-02-01T03:19:51;1.80;92.00
16032;DHT22;8120;48.308;8.914;2023-02-01T03:22:24;1.80;92.50
16032;DHT22;8120;48.308;8.914;2023-02-01T03:24:56;1.80;92.10
16032;DHT22;8120;48.308;8.914;2023-02-01T03:27:31;1.70;92.10
16032;DHT22;8120;48.308;8.914;2023-02-01T03:30:04;1.80;91.40
16032;DHT22;8120;48.308;8.914;2023-02-01T03:32:34;1.80;91.10
16032;DHT22;8120;48.308;8.914;2023-02-01T03:35:26;1.80;91.20
16032;DHT22;8120;48.308;8.914;2023-02-01T03:38:02;1.80;91.50
16032;DHT22;8120;48.308;8.914;2023-02-01T03:40:33;1.80;91.10
16032;DHT22;8120;48.308;8.914;2023-02-01T03:43:04;1.80;90.70
16032;DHT22;8120;48.308;8.914;2023-02-01T03:45:38;1.80;90.40
16032;DHT22;8120;48.308;8.914;2023-02-01T03:48:09;1.80;90.20
16032;DHT22;8120;48.308;8.914;2023-02-01T03:50:44;1.80;89.90
16032;DHT22;8120;48.308;8.914;2023-02-01T03:53:17;1.80;90.10
16032;DHT22;8120;48.308;8.914;2023-02-01T03:55:47;1.90;89.90
16032;DHT22;8120;48.308;8.914;2023-02-01T03:58:16;1.90;89.50
16032;DHT22;8120;48.308;8.914;2023-02-01T04:00:49;1.90;88.90
16032;DHT22;8120;48.308;8.914;2023-02-01T04:03:18;1.90;88.50
16032;DHT22;8120;48.308;8.914;2023-02-01T04:05:46;1.90;89.00
16032;DHT22;8120;48.308;8.914;2023-02-01T04:08:15;1.90;89.40
16032;DHT22;8120;48.308;8.914;2023-02-01T04:10:43;1.80;89.50
16032;DHT22;8120;48.308;8.914;2023-02-01T04:13:10;1.80;89.90
16032;DHT22;8120;48.308;8.914;2023-02-01T04:15:38;1.80;90.30
16032;DHT22;8120;48.308;8.914;2023-02-01T04:18:06;1.70;91.10
16032;DHT22;8120;48.308;8.914;2023-02-01T04:20:34;1.70;91.60
16032;DHT22;8120;48.308;8.914;2023-02-01T04:23:02;1.70;92.10
16032;DHT22;8120;48.308;8.914;2023-02-01T04:25:31;1.60;92.60
16032;DHT22;8120;48.308;8.914;2023-02-01T04:27:59;1.70;92.20
16032;DHT22;8120;48.308;8.914;2023-02-01T04:30:27;1.70;92.10
16032;DHT22;8120;48.308;8.914;2023-02-01T04:32:55;1.70;91.80
16032;DHT22;8120;48.308;8.914;2023-02-01T04:35:23;1.70;92.00
16032;DHT22;8120;48.308;8.914;2023-02-01T04:37:51;1.70;92.10
16032;DHT22;8120;48.308;8.914;2023-02-01T04:40:19;1.70;92.10
16032;DHT22;8120;48.308;8.914;2023-02-01T04:42:48;1.70;92.50
16032;DHT22;8120;48.308;8.914;2023-02-01T04:45:16;1.70;92.10
16032;DHT22;8120;48.308;8.914;2023-02-01T04:47:45;1.80;91.50
16032;DHT22;8120;48.308;8.914;2023-02-01T04:50:15;1.70;91.90
16032;DHT22;8120;48.308;8.914;2023-02-01T04:52:43;1.80;91.50
16032;DHT22;8120;48.308;8.914;2023-02-01T04:55:12;1.70;91.60
16032;DHT22;8120;48.308;8.914;2023-02-01T04:57:40;1.70;91.50
16032;DHT22;8120;48.308;8.914;2023-02-01T05:00:10;1.70;91.40
16032;DHT22;8120;48.308;8.914;2023-02-01T05:02:39;1.70;91.80
16032;DHT22;8120;48.308;8.914;2023-02-01T05:05:08;1.70;91.70
16032;DHT22;8120;48.308;8.914;2023-02-01T05:07:36;1.70;91.80
16032;DHT22;8120;48.308;8.914;2023-02-01T05:10:04;1.70;91.10
16032;DHT22;8120;48.308;8.914;2023-02-01T05:12:32;1.80;90.40
16032;DHT22;8120;48.308;8.914;2023-02-01T05:15:19;1.80;90.10
16032;DHT22;8120;48.308;8.914;2023-02-01T05:17:46;1.80;89.60
16032;DHT22;8120;48.308;8.914;2023-02-01T05:20:14;1.80;89.60
16032;DHT22;8120;48.308;8.914;2023-02-01T05:22:42;1.90;89.40
16032;DHT22;8120;48.308;8.914;2023-02-01T05:25:10;1.90;88.40
16032;DHT22;8120;48.308;8.914;2023-02-01T05:27:38;1.90;88.30
16032;DHT22;8120;48.308;8.914;2023-02-01T05:30:07;2.00;87.80
16032;DHT22;8120;48.308;8.914;2023-02-01T05:32:36;2.00;87.60
16032;DHT22;8120;48.308;8.914;2023-02-01T05:35:05;2.00;87.10
16032;DHT22;8120;48.308;8.914;2023-02-01T05:37:33;2.00;87.10
16032;DHT22;8120;48.308;8.914;2023-02-01T05:40:01;2.10;87.00
16032;DHT22;8120;48.308;8.914;2023-02-01T05:42:28;2.00;87.10
16032;DHT22;8120;48.308;8.914;2023-02-01T05:44:56;2.10;86.50
16032;DHT22;8120;48.308;8.914;2023-02-01T05:47:24;2.10;86.20
16032;DHT22;8120;48.308;8.914;2023-02-01T05:49:53;2.10;85.80
16032;DHT22;8120;48.308;8.914;2023-02-01T05:52:21;2.10;85.50
16032;DHT22;8120;48.308;8.914;2023-02-01T05:54:49;2.10;85.10
16032;DHT22;8120;48.308;8.914;2023-02-01T05:57:17;2.10;84.70
16032;DHT22;8120;48.308;8.914;2023-02-01T05:59:44;2.20;84.00
16032;DHT22;8120;48.308;8.914;2023-02-01T06:02:14;2.20;83.90
16032;DHT22;8120;48.308;8.914;2023-02-01T06:04:42;2.20;83.80
16032;DHT22;8120;48.308;8.914;2023-02-01T06:07:11;2.20;83.80
16032;DHT22;8120;48.308;8.914;2023-02-01T06:09:39;2.20;83.90
16032;DHT22;8120;48.308;8.914;2023-02-01T06:12:07;2.20;83.90
16032;DHT22;8120;48.308;8.914;2023-02-01T06:14:35;2.20;83.70
16032;DHT22;8120;48.308;8.914;2023-02-01T06:17:03;2.20;83.90
16032;DHT22;8120;48.308;8.914;2023-02-01T06:19:32;2.30;83.60
16032;DHT22;8120;48.308;8.914;2023-02-01T06:22:00;2.20;83.70
16032;DHT22;8120;48.308;8.914;2023-02-01T06:24:29;2.30;83.10
16032;DHT22;8120;48.308;8.914;2023-02-01T06:26:57;2.30;82.80
16032;DHT22;8120;48.308;8.914;2023-02-01T06:29:24;2.30;83.20
16032;DHT22;8120;48.308;8.914;2023-02-01T06:31:53;2.30;82.60
16032;DHT22;8120;48.308;8.914;2023-02-01T06:34:21;2.40;82.20
16032;DHT22;8120;48.308;8.914;2023-02-01T06:36:50;2.40;82.00
16032;DHT22;8120;48.308;8.914;2023-02-01T06:39:18;2.40;82.20
16032;DHT22;8120;48.308;8.914;2023-02-01T06:41:47;2.40;82.00
16032;DHT22;8120;48.308;8.914;2023-02-01T06:44:16;2.40;82.00
16032;DHT22;8120;48.308;8.914;2023-02-01T06:46:44;2.40;82.80
16032;DHT22;8120;48.308;8.914;2023-02-01T06:49:12;2.30;84.50
16032;DHT22;8120;48.308;8.914;2023-02-01T06:51:40;2.10;85.80
16032;DHT22;8120;48.308;8.914;2023-02-01T06:54:08;2.00;87.00
16032;DHT22;8120;48.308;8.914;2023-02-01T06:56:35;1.90;87.70
16032;DHT22;8120;48.308;8.914;2023-02-01T06:59:05;1.80;89.20
16032;DHT22;8120;48.308;8.914;2023-02-01T07:01:34;1.70;90.80
16032;DHT22;8120;48.308;8.914;2023-02-01T07:04:01;1.70;91.30
16032;DHT22;8120;48.308;8.914;2023-02-01T07:06:30;1.70;91.70
16032;DHT22;8120;48.308;8.914;2023-02-01T07:08:57;1.60;92.00
16032;DHT22;8120;48.308;8.914;2023-02-01T07:11:27;1.60;92.30
16032;DHT22;8120;48.308;8.914;2023-02-01T07:13:54;1.70;92.60
16032;DHT22;8120;48.308;8.914;2023-02-01T07:16:24;1.60;93.00
16032;DHT22;8120;48.308;8.914;2023-02-01T07:18:52;1.60;92.80
16032;DHT22;8120;48.308;8.914;2023-02-01T07:21:20;1.60;93.40
16032;DHT22;8120;48.308;8.914;2023-02-01T07:23:48;1.60;93.60
16032;DHT22;8120;48.308;8.914;2023-02-01T07:26:16;1.70;93.20
16032;DHT22;8120;48.308;8.914;2023-02-01T07:28:44;1.60;93.40
16032;DHT22;8120;48.308;8.914;2023-02-01T07:31:14;1.80;90.90
16032;DHT22;8120;48.308;8.914;2023-02-01T07:33:46;1.90;89.60
16032;DHT22;8120;48.308;8.914;2023-02-01T07:36:16;1.90;90.20
16032;DHT22;8120;48.308;8.914;2023-02-01T07:38:44;1.80;90.30
16032;DHT22;8120;48.308;8.914;2023-02-01T07:41:13;1.80;90.90
16032;DHT22;8120;48.308;8.914;2023-02-01T07:43:41;1.80;90.90
16032;DHT22;8120;48.308;8.914;2023-02-01T07:46:10;1.80;91.20
16032;DHT22;8120;48.308;8.914;2023-02-01T07:48:38;1.80;91.50
16032;DHT22;8120;48.308;8.914;2023-02-01T07:51:10;1.80;91.50
16032;DHT22;8120;48.308;8.914;2023-02-01T07:53:38;1.80;92.10
16032;DHT22;8120;48.308;8.914;2023-02-01T07:56:11;1.70;92.20
16032;DHT22;8120;48.308;8.914;2023-02-01T07:58:39;1.70;91.80
16032;DHT22;8120;48.308;8.914;2023-02-01T08:01:14;1.80;91.60
16032;DHT22;8120;48.308;8.914;2023-02-01T08:03:48;1.80;91.50
16032;DHT22;8120;48.308;8.914;2023-02-01T08:06:18;1.80;90.80
16032;DHT22;8120;48.308;8.914;2023-02-01T08:08:47;1.90;90.00
16032;DHT22;8120;48.308;8.914;2023-02-01T08:11:16;1.90;89.40
16032;DHT22;8120;48.308;8.914;2023-02-01T08:13:44;2.00;89.10
16032;DHT22;8120;48.308;8.914;2023-02-01T08:16:14;2.00;89.20
16032;DHT22;8120;48.308;8.914;2023-02-01T08:18:42;2.10;89.40
16032;DHT22;8120;48.308;8.914;2023-02-01T08:21:13;2.00;89.60
16032;DHT22;8120;48.308;8.914;2023-02-01T08:23:42;2.10;88.70
16032;DHT22;8120;48.308;8.914;2023-02-01T08:26:13;2.10;87.90
16032;DHT22;8120;48.308;8.914;2023-02-01T08:28:42;2.20;88.20
16032;DHT22;8120;48.308;8.914;2023-02-01T08:31:12;2.10;88.10
16032;DHT22;8120;48.308;8.914;2023-02-01T08:33:42;2.10;88.20
16032;DHT22;8120;48.308;8.914;2023-02-01T08:36:10;2.10;88.20
16032;DHT22;8120;48.308;8.914;2023-02-01T08:38:42;2.20;88.20
16032;DHT22;8120;48.308;8.914;2023-02-01T08:41:12;2.20;87.60
16032;DHT22;8120;48.308;8.914;2023-02-01T08:43:40;2.10;87.50
16032;DHT22;8120;48.308;8.914;2023-02-01T08:46:08;2.20;88.00
16032;DHT22;8120;48.308;8.914;2023-02-01T08:48:38;2.10;88.00
16032;DHT22;8120;48.308;8.914;2023-02-01T08:51:08;2.10;87.90
16032;DHT22;8120;48.308;8.914;2023-02-01T08:53:37;2.20;87.40
16032;DHT22;8120;48.308;8.914;2023-02-01T08:56:09;2.30;86.90
16032;DHT22;8120;48.308;8.914;2023-02-01T08:58:37;2.30;86.60
16032;DHT22;8120;48.308;8.914;2023-02-01T09:01:05;2.30;85.60
16032;DHT22;8120;48.308;8.914;2023-02-01T09:03:34;2.40;85.40
16032;DHT22;8120;48.308;8.914;2023-02-01T09:06:02;2.50;85.80
16032;DHT22;8120;48.308;8.914;2023-02-01T09:08:30;2.50;84.90
16032;DHT22;8120;48.308;8.914;2023-02-01T09:10:59;2.50;85.20
16032;DHT22;8120;48.308;8.914;2023-02-01T09:13:31;2.40;84.00
16032;DHT22;8120;48.308;8.914;2023-02-01T09:16:00;2.40;84.40
16032;DHT22;8120;48.308;8.914;2023-02-01T09:18:28;2.40;83.30
16032;DHT22;8120;48.308;8.914;2023-02-01T09:20:56;2.40;82.30
16032;DHT22;8120;48.308;8.914;2023-02-01T09:23:24;2.40;81.50
16032;DHT22;8120;48.308;8.914;2023-02-01T09:25:52;2.50;81.60
16032;DHT22;8120;48.308;8.914;2023-02-01T09:28:20;2.50;81.40
16032;DHT22;8120;48.308;8.914;2023-02-01T09:30:49;2.50;80.80
16032;DHT22;8120;48.308;8.914;2023-02-01T09:33:17;2.60;80.60
16032;DHT22;8120;48.308;8.914;2023-02-01T09:35:45;2.70;79.60
16032;DHT22;8120;48.308;8.914;2023-02-01T09:38:13;2.80;79.10
16032;DHT22;8120;48.308;8.914;2023-02-01T09:40:46;3.00;79.10
16032;DHT22;8120;48.308;8.914;2023-02-01T09:43:33;3.20;77.40
16032;DHT22;8120;48.308;8.914;2023-02-01T09:46:18;3.30;77.00
16032;DHT22;8120;48.308;8.914;2023-02-01T09:48:49;3.20;76.00
16032;DHT22;8120;48.308;8.914;2023-02-01T09:51:23;3.10;75.90
16032;DHT22;8120;48.308;8.914;2023-02-01T09:53:59;3.10;76.50
16032;DHT22;8120;48.308;8.914;2023-02-01T09:56:35;3.20;76.20
16032;DHT22;8120;48.308;8.914;2023-02-01T09:59:09;3.10;75.70
16032;DHT22;8120;48.308;8.914;2023-02-01T10:01:43;3.10;76.30
16032;DHT22;8120;48.308;8.914;2023-02-01T10:04:14;3.00;76.90
16032;DHT22;8120;48.308;8.914;2023-02-01T10:06:55;3.00;75.40
16032;DHT22;8120;48.308;8.914;2023-02-01T10:09:35;3.00;75.50
16032;DHT22;8120;48.308;8.914;2023-02-01T10:15:20;3.00;75.60
16032;DHT22;8120;48.308;8.914;2023-02-01T10:18:04;3.00;75.60
16032;DHT22;8120;48.308;8.914;2023-02-01T10:20:48;3.10;75.40
16032;DHT22;8120;48.308;8.914;2023-02-01T10:23:32;3.10;75.30
16032;DHT22;8120;48.308;8.914;2023-02-01T10:26:12;3.20;76.00
16032;DHT22;8120;48.308;8.914;2023-02-01T10:28:48;3.20;75.80
16032;DHT22;8120;48.308;8.914;2023-02-01T10:31:17;3.30;76.30
16032;DHT22;8120;48.308;8.914;2023-02-01T10:33:50;3.30;76.40
16032;DHT22;8120;48.308;8.914;2023-02-01T10:36:21;3.30;76.40
16032;DHT22;8120;48.308;8.914;2023-02-01T10:38:50;3.40;77.10
16032;DHT22;8120;48.308;8.914;2023-02-01T10:41:20;3.50;77.80
16032;DHT22;8120;48.308;8.914;2023-02-01T10:43:54;3.50;77.90
16032;DHT22;8120;48.308;8.914;2023-02-01T10:46:23;3.40;78.10
16032;DHT22;8120;48.308;8.914;2023-02-01T10:48:55;3.50;78.60
16032;DHT22;8120;48.308;8.914;2023-02-01T10:51:27;3.00;81.60
16032;DHT22;8120;48.308;8.914;2023-02-01T10:53:58;3.00;83.50
16032;DHT22;8120;48.308;8.914;2023-02-01T10:56:28;3.00;84.80
16032;DHT22;8120;48.308;8.914;2023-02-01T10:59:01;3.00;82.60
16032;DHT22;8120;48.308;8.914;2023-02-01T11:01:33;2.80;83.50
16032;DHT22;8120;48.308;8.914;2023-02-01T11:04:04;2.60;84.60
16032;DHT22;8120;48.308;8.914;2023-02-01T11:06:35;2.60;87.30
16032;DHT22;8120;48.308;8.914;2023-02-01T11:09:11;2.60;88.70
16032;DHT22;8120;48.308;8.914;2023-02-01T11:11:54;2.70;88.50
16032;DHT22;8120;48.308;8.914;2023-02-01T11:14:30;2.80;88.40
16032;DHT22;8120;48.308;8.914;2023-02-01T11:17:01;2.80;88.20
16032;DHT22;8120;48.308;8.914;2023-02-01T11:19:31;2.90;85.40
16032;DHT22;8120;48.308;8.914;2023-02-01T11:21:59;3.00;85.50
16032;DHT22;8120;48.308;8.914;2023-02-01T11:24:29;3.10;83.90
16032;DHT22;8120;48.308;8.914;2023-02-01T11:27:01;3.30;82.60
16032;DHT22;8120;48.308;8.914;2023-02-01T11:29:36;3.50;80.60
16032;DHT22;8120;48.308;8.914;2023-02-01T11:32:05;3.50;82.00
16032;DHT22;8120;48.308;8.914;2023-02-01T11:34:38;3.60;80.40
16032;DHT22;8120;48.308;8.914;2023-02-01T11:37:14;3.50;77.30
16032;DHT22;8120;48.308;8.914;2023-02-01T11:39:53;3.40;76.80
16032;DHT22;8120;48.308;8.914;2023-02-01T11:42:22;3.20;78.30
16032;DHT22;8120;48.308;8.914;2023-02-01T11:44:50;3.10;77.20
16032;DHT22;8120;48.308;8.914;2023-02-01T11:47:24;3.00;78.50
16032;DHT22;8120;48.308;8.914;2023-02-01T11:49:54;3.00;78.60
16032;DHT22;8120;48.308;8.914;2023-02-01T11:52:38;3.00;77.80
16032;DHT22;8120;48.308;8.914;2023-02-01T11:55:18;3.10;77.20
16032;DHT22;8120;48.308;8.914;2023-02-01T11:58:02;3.10;77.40
16032;DHT22;8120;48.308;8.914;2023-02-01T12:01:02;3.20;78.40
16032;DHT22;8120;48.308;8.914;2023-02-01T12:03:51;3.20;79.00
16032;DHT22;8120;48.308;8.914;2023-02-01T12:06:31;3.10;78.60
16032;DHT22;8120;48.308;8.914;2023-02-01T12:09:15;3.00;78.20
16032;DHT22;8120;48.308;8.914;2023-02-01T12:11:55;3.00;78.00
16032;DHT22;8120;48.308;8.914;2023-02-01T12:14:39;3.00;77.90
16032;DHT22;8120;48.308;8.914;2023-02-01T12:17:51;3.10;77.90
16032;DHT22;8120;48.308;8.914;2023-02-01T12:20:32;3.20;78.10
16032;DHT22;8120;48.308;8.914;2023-02-01T12:23:15;3.10;77.00
16032;DHT22;8120;48.308;8.914;2023-02-01T12:26:03;3.00;78.10
16032;DHT22;8120;48.308;8.914;2023-02-01T12:28:48;3.00;77.00
16032;DHT22;8120;48.308;8.914;2023-02-01T12:31:38;3.00;77.50
16032;DHT22;8120;48.308;8.914;2023-02-01T12:34:36;3.00;76.80
16032;DHT22;8120;48.308;8.914;2023-02-01T12:37:14;3.00;77.80
16032;DHT22;8120;48.308;8.914;2023-02-01T12:39:54;2.90;75.90
16032;DHT22;8120;48.308;8.914;2023-02-01T12:42:26;3.00;75.30
16032;DHT22;8120;48.308;8.914;2023-02-01T12:45:00;3.00;74.60
16032;DHT22;8120;48.308;8.914;2023-02-01T12:47:35;3.10;73.10
16032;DHT22;8120;48.308;8.914;2023-02-01T12:50:12;3.10;72.80
16032;DHT22;8120;48.308;8.914;2023-02-01T12:52:46;3.10;72.50
16032;DHT22;8120;48.308;8.914;2023-02-01T12:55:20;3.10;73.10
16032;DHT22;8120;48.308;8.914;2023-02-01T12:57:53;3.20;71.90
16032;DHT22;8120;48.308;8.914;2023-02-01T13:00:27;3.20;72.00
16032;DHT22;8120;48.308;8.914;2023-02-01T13:03:03;3.10;72.00
16032;DHT22;8120;48.308;8.914;2023-02-01T13:05:40;3.10;73.50
16032;DHT22;8120;48.308;8.914;2023-02-01T13:08:15;3.20;72.70
16032;DHT22;8120;48.308;8.914;2023-02-01T13:10:52;3.10;71.80
16032;DHT22;8120;48.308;8.914;2023-02-01T13:13:26;3.20;71.40
16032;DHT22;8120;48.308;8.914;2023-02-01T13:16:11;3.20;70.50
16032;DHT22;8120;48.308;8.914;2023-02-01T13:18:47;3.20;71.00
16032;DHT22;8120;48.308;8.914;2023-02-01T13:21:21;3.20;71.50
16032;DHT22;8120;48.308;8.914;2023-02-01T13:23:52;3.10;72.10
16032;DHT22;8120;48.308;8.914;2023-02-01T13:26:24;3.10;71.60
16032;DHT22;8120;48.308;8.914;2023-02-01T13:28:55;3.10;71.90
16032;DHT22;8120;48.308;8.914;2023-02-01T13:31:38;3.10;71.60
16032;DHT22;8120;48.308;8.914;2023-02-01T13:34:33;3.10;70.80
16032;DHT22;8120;48.308;8.914;2023-02-01T13:37:28;3.10;72.10
16032;DHT22;8120;48.308;8.914;2023-02-01T13:40:11;3.10;72.30
16032;DHT22;8120;48.308;8.914;2023-02-01T13:42:49;3.10;72.00
16032;DHT22;8120;48.308;8.914;2023-02-01T13:45:20;3.10;72.00
16032;DHT22;8120;48.308;8.914;2023-02-01T13:47:52;3.00;72.40
16032;DHT22;8120;48.308;8.914;2023-02-01T13:50:23;3.00;73.20
16032;DHT22;8120;48.308;8.914;2023-02-01T13:52:54;2.90;73.50
16032;DHT22;8120;48.308;8.914;2023-02-01T13:55:34;3.00;72.60
16032;DHT22;8120;48.308;8.914;2023-02-01T13:58:18;3.00;72.20
16032;DHT22;8120;48.308;8.914;2023-02-01T14:00:47;3.00;72.30
16032;DHT22;8120;48.308;8.914;2023-02-01T14:03:18;3.00;72.70
16032;DHT22;8120;48.308;8.914;2023-02-01T14:06:15;3.00;72.50
16032;DHT22;8120;48.308;8.914;2023-02-01T14:08:46;3.00;71.80
16032;DHT22;8120;48.308;8.914;2023-02-01T14:11:38;3.00;72.20
16032;DHT22;8120;48.308;8.914;2023-02-01T14:17:41;2.90;73.10
16032;DHT22;8120;48.308;8.914;2023-02-01T14:20:39;2.90;73.70
16032;DHT22;8120;48.308;8.914;2023-02-01T14:23:16;2.90;73.10
16032;DHT22;8120;48.308;8.914;2023-02-01T14:25:45;3.00;73.00
16032;DHT22;8120;48.308;8.914;2023-02-01T14:28:23;3.00;73.10
16032;DHT22;8120;48.308;8.914;2023-02-01T14:30:54;3.10;71.70
16032;DHT22;8120;48.308;8.914;2023-02-01T14:33:26;3.10;72.50
16032;DHT22;8120;48.308;8.914;2023-02-01T14:36:03;3.00;72.80
16032;DHT22;8120;48.308;8.914;2023-02-01T14:38:34;3.00;72.90
16032;DHT22;8120;48.308;8.914;2023-02-01T14:41:31;3.10;72.50
16032;DHT22;8120;48.308;8.914;2023-02-01T14:44:27;3.10;72.90
16032;DHT22;8120;48.308;8.914;2023-02-01T14:47:10;3.10;72.00
16032;DHT22;8120;48.308;8.914;2023-02-01T14:49:48;3.10;72.60
16032;DHT22;8120;48.308;8.914;2023-02-01T14:52:19;3.10;72.40
16032;DHT22;8120;48.308;8.914;2023-02-01T14:54:51;3.10;72.60
16032;DHT22;8120;48.308;8.914;2023-02-01T14:57:24;3.10;72.60
16032;DHT22;8120;48.308;8.914;2023-02-01T14:59:59;3.10;72.50
16032;DHT22;8120;48.308;8.914;2023-02-01T15:02:27;3.10;72.80
16032;DHT22;8120;48.308;8.914;2023-02-01T15:04:59;3.10;73.00
16032;DHT22;8120;48.308;8.914;2023-02-01T15:07:28;3.00;73.10
16032;DHT22;8120;48.308;8.914;2023-02-01T15:09:57;3.00;73.70
16032;DHT22;8120;48.308;8.914;2023-02-01T15:12:27;3.00;74.00
16032;DHT22;8120;48.308;8.914;2023-02-01T15:15:11;2.90;73.10
16032;DHT22;8120;48.308;8.914;2023-02-01T15:17:40;3.00;73.10
16032;DHT22;8120;48.308;8.914;2023-02-01T15:20:15;3.00;73.10
16032;DHT22;8120;48.308;8.914;2023-02-01T15:22:53;3.00;73.70
16032;DHT22;8120;48.308;8.914;2023-02-01T15:25:23;3.00;73.20
16032;DHT22;8120;48.308;8.914;2023-02-01T15:27:52;3.00;72.90
16032;DHT22;8120;48.308;8.914;2023-02-01T15:30:22;3.00;73.80
16032;DHT22;8120;48.308;8.914;2023-02-01T15:32:51;3.00;73.40
16032;DHT22;8120;48.308;8.914;2023-02-01T15:35:41;3.00;73.80
16032;DHT22;8120;48.308;8.914;2023-02-01T15:38:34;3.00;73.30
16032;DHT22;8120;48.308;8.914;2023-02-01T15:41:06;3.00;73.50
16032;DHT22;8120;48.308;8.914;2023-02-01T15:43:37;3.00;73.10
16032;DHT22;8120;48.308;8.914;2023-02-01T15:46:12;3.00;73.50
16032;DHT22;8120;48.308;8.914;2023-02-01T15:48:47;2.90;73.80
16032;DHT22;8120;48.308;8.914;2023-02-01T15:51:19;2.90;73.80
16032;DHT22;8120;48.308;8.914;2023-02-01T15:53:51;3.00;73.40
16032;DHT22;8120;48.308;8.914;2023-02-01T15:56:25;2.90;73.60
16032;DHT22;8120;48.308;8.914;2023-02-01T15:58:56;2.90;73.80
16032;DHT22;8120;48.308;8.914;2023-02-01T16:01:25;2.90;74.20
16032;DHT22;8120;48.308;8.914;2023-02-01T16:04:10;2.90;74.50
16032;DHT22;8120;48.308;8.914;2023-02-01T16:06:48;2.80;74.70
16032;DHT22;8120;48.308;8.914;2023-02-01T16:09:17;2.90;74.80
16032;DHT22;8120;48.308;8.914;2023-02-01T16:11:54;2.80;75.60
16032;DHT22;8120;48.308;8.914;2023-02-01T16:14:22;2.80;75.60
16032;DHT22;8120;48.308;8.914;2023-02-01T16:16:51;2.80;75.10
16032;DHT22;8120;48.308;8.914;2023-02-01T16:19:20;2.80;75.30
16032;DHT22;8120;48.308;8.914;2023-02-01T16:21:51;2.80;75.50
16032;DHT22;8120;48.308;8.914;2023-02-01T16:24:19;2.70;76.10
16032;DHT22;8120;48.308;8.914;2023-02-01T16:26:49;2.60;76.70
16032;DHT22;8120;48.308;8.914;2023-02-01T16:29:18;2.50;76.50
16032;DHT22;8120;48.308;8.914;2023-02-01T16:31:48;2.60;76.30
16032;DHT22;8120;48.308;8.914;2023-02-01T16:34:17;2.60;76.60
16032;DHT22;8120;48.308;8.914;2023-02-01T16:36:47;2.60;76.10
16032;DHT22;8120;48.308;8.914;2023-02-01T16:39:20;2.50;76.20
16032;DHT22;8120;48.308;8.914;2023-02-01T16:41:49;2.60;76.10
16032;DHT22;8120;48.308;8.914;2023-02-01T16:44:17;2.50;76.50
16032;DHT22;8120;48.308;8.914;2023-02-01T16:46:47;2.50;76.70